OpenWheelWorld.net Home
scott dixon
linker balk
Firestone Grand Prix of Monterey  
Track: Laguna Seca  
Type: Roadcourse  
Length: 3.602 km.  
Trackrecord: 1:07.722  
Mario Dominguez Mario Dominguez "Laguna Seca is a beautiful track with lots of changes in elevation. It is very fast with no room for error. The corkscrew, turn 7, is great for the drivers as well as the fans."  
Test session 1  
P Driver Team Time GL GP AVG  
1. C. Herta (R) HS Racing 1:10.007 114.979  
2. W. Power Team Penske 1:10.538 0.531 114.219  
3. F. Rosenqvist (R) Ganassi Racing 1:10.590 0.582 0.051 114.136  
4. J. Newgarden Team Penske 1:10.640 0.633 0.051 114.054  
5. G. Rahal Rahal Letterman Lanigan 1:10.771 0.764 0.130 113.843  
6. S. Dixon Ganassi Racing 1:10.789 0.782 0.019 113.814  
7. R. Hunter-Reay Andretti Autosport 1:10.809 0.802 0.020 113.782  
8. S. Pagenaud Team Penske 1:10.813 0.806 0.004 113.776  
9. A. Rossi Andretti Autosport 1:10.823 0.816 0.010 113.759  
10. Z. Veach Andretti Autosport 1:10.831 0.824 0.008 113.747  
11. M. Ericsson (R) Arrow Schmidt Peterson 1:10.888 0.880 0.057 113.656  
12. S. Ferrucci (R) Dale Coyne 1:10.947 0.940 0.059 113.561  
13. C. Daly Andretti Autosport 1:10.948 0.940 0.001 113.560  
14. S. Bourdais Dale Coyne 1:11.075 1.068 0.127 113.356  
15. M. Chilton Carlin 1:11.171 1.163 0.096 113.204  
16. J. Hinchcliffe Arrow Schmidt Peterson 1:11.231 1.223 0.060 113.109  
17. T. Kanaan A.J. Foyt Enterprises 1:11.282 1.275 0.052 113.027  
18. Mo. Andretti Andretti Autosport 1:11.299 1.292 0.017 112.999  
19. C. Kimball Carlin 1:11.366 1.359 0.067 112.894  
20. J. Harvey Meyer-Shank Racing 1:11.369 1.362 0.003 112.890  
21. M. Leist A.J. Foyt Enterprises 1:11.380 1.373 0.011 112.871  
22. S. Pigot Ed Carpenter Racing 1:11.392 1.385 0.012 112.853  
23. T. Sato Rahal Letterman Lanigan 1:11.414 1.407 0.022 112.819  
24. E. Jones Ed Carpenter Racing 1:11.438 1.430 0.024 112.781  
 

P Position | GL Gap Leader | GP Gap Previous | AVG Average Speed